Time;durP1;ratioP1;P1;durP2;ratioP2;P2;SDS_P1;SDS_P2;PMS_P1;PMS_P2;Temp;Humidity;BMP_temperature;BMP_pressure;BME280_temperature;BME280_humidity;BME280_pressure;Samples;Min_cycle;Max_cycle;Signal;HPM_P1;HPM_P2
2022/09/02 00:01:32;;;;;;;1.83;0.50;;;;;;;15.91;61.29;101832.78;6198091;28;20061;-77
2022/09/02 00:04:33;;;;;;;2.72;0.40;;;;;;;15.92;61.53;101829.19;6197696;28;20042;-76
2022/09/02 00:07:34;;;;;;;0.75;0.50;;;;;;;15.93;61.29;101828.25;6198389;28;20054;-80
2022/09/02 00:10:39;;;;;;;0.77;0.40;;;;;;;15.86;61.89;101827.75;6198069;28;20078;-78
2022/09/02 00:13:41;;;;;;;0.55;0.52;;;;;;;15.78;62.15;101826.50;6200168;28;20046;-78
2022/09/02 00:16:50;;;;;;;3.00;0.60;;;;;;;15.78;62.34;101829.16;6203489;28;20058;-79
2022/09/02 00:19:53;;;;;;;0.52;0.50;;;;;;;15.74;62.52;101820.50;6202806;28;20046;-78
2022/09/02 00:22:55;;;;;;;0.50;0.50;;;;;;;15.76;62.60;101823.06;6203426;28;20144;-78
2022/09/02 00:25:58;;;;;;;1.48;0.50;;;;;;;15.77;62.62;101819.50;6203048;28;20387;-78
2022/09/02 00:28:59;;;;;;;2.08;0.60;;;;;;;15.74;62.80;101817.88;6203097;28;20058;-78
2022/09/02 00:32:00;;;;;;;0.50;0.50;;;;;;;15.70;63.09;101811.88;6202687;28;20051;-78
2022/09/02 00:35:02;;;;;;;0.80;0.50;;;;;;;15.69;63.40;101811.97;6202759;28;20058;-79
2022/09/02 00:38:04;;;;;;;0.30;0.30;;;;;;;15.67;63.69;101816.53;6202830;28;20050;-77
2022/09/02 00:41:09;;;;;;;0.70;0.52;;;;;;;15.63;63.45;101818.47;6202762;28;20046;-78
2022/09/02 00:44:12;;;;;;;0.88;0.40;;;;;;;15.57;63.58;101813.50;6202147;28;20069;-79
2022/09/02 00:47:14;;;;;;;1.08;0.60;;;;;;;15.56;64.03;101817.09;6203103;28;20050;-78
2022/09/02 00:50:21;;;;;;;0.60;0.55;;;;;;;15.54;64.36;101816.34;6202154;28;20194;-80
2022/09/02 00:53:22;;;;;;;0.30;0.30;;;;;;;15.47;64.57;101810.50;6202767;28;20046;-78
2022/09/02 00:56:28;;;;;;;0.43;0.43;;;;;;;15.48;64.53;101814.88;6202193;28;20050;-78
2022/09/02 00:59:42;;;;;;;0.43;0.43;;;;;;;15.45;64.84;101815.06;6202368;28;20080;-78
2022/09/02 01:02:47;;;;;;;0.32;0.32;;;;;;;15.40;64.99;101808.31;6202498;28;20076;-78
2022/09/02 01:05:51;;;;;;;0.47;0.40;;;;;;;15.34;65.23;101806.84;6202263;28;20157;-78
2022/09/02 01:08:58;;;;;;;0.70;0.60;;;;;;;15.29;65.43;101811.56;6202460;28;20057;-78
2022/09/02 01:12:02;;;;;;;1.27;0.40;;;;;;;15.22;65.92;101811.06;6201876;28;20190;-78
2022/09/02 01:15:07;;;;;;;0.57;0.50;;;;;;;15.13;66.13;101806.28;6201632;28;20058;-78
2022/09/02 01:18:12;;;;;;;1.00;0.47;;;;;;;15.17;66.28;101810.47;6202033;28;20046;-78
2022/09/02 01:21:14;;;;;;;0.30;0.30;;;;;;;15.20;66.22;101798.81;6201720;28;20513;-79
2022/09/02 01:24:18;;;;;;;0.30;0.30;;;;;;;15.18;66.29;101800.72;6201470;28;20046;-77
2022/09/02 01:27:23;;;;;;;0.40;0.40;;;;;;;15.13;66.62;101794.84;6201755;28;20050;-79
2022/09/02 01:30:25;;;;;;;3.83;0.40;;;;;;;15.08;66.95;101788.91;6201346;28;20097;-78
2022/09/02 01:33:27;;;;;;;0.57;0.57;;;;;;;15.01;67.06;101796.34;6201655;28;20054;-78
2022/09/02 01:36:28;;;;;;;0.50;0.40;;;;;;;15.01;67.17;101791.06;6201084;28;20047;-77
2022/09/02 01:39:31;;;;;;;0.75;0.60;;;;;;;15.00;67.38;101789.34;6201443;28;20430;-78
2022/09/02 01:42:33;;;;;;;0.73;0.50;;;;;;;14.95;67.74;101786.13;6201247;28;20058;-78
2022/09/02 01:45:35;;;;;;;0.43;0.43;;;;;;;14.97;67.44;101785.06;6201022;28;20046;-78
2022/09/02 01:48:36;;;;;;;0.63;0.60;;;;;;;14.89;67.64;101781.97;6201237;28;20137;-78
2022/09/02 01:51:38;;;;;;;0.55;0.40;;;;;;;14.91;67.80;101776.63;6200884;28;20633;-78
2022/09/02 01:54:40;;;;;;;1.50;0.60;;;;;;;14.86;67.85;101774.25;6200803;28;20054;-78
2022/09/02 01:57:42;;;;;;;1.25;0.60;;;;;;;14.88;68.37;101774.13;6201012;28;20046;-79
2022/09/02 02:00:43;;;;;;;3.33;0.55;;;;;;;14.86;68.30;101774.25;6200612;28;20062;-78
2022/09/02 02:03:44;;;;;;;0.75;0.40;;;;;;;14.80;68.93;101771.06;6200535;28;20053;-77
2022/09/02 02:06:47;;;;;;;0.43;0.43;;;;;;;14.76;68.71;101767.75;6200681;28;20084;-78
2022/09/02 02:09:50;;;;;;;0.60;0.50;;;;;;;14.71;69.30;101772.41;6200557;28;20562;-77
2022/09/02 02:12:52;;;;;;;0.60;0.52;;;;;;;14.68;69.45;101764.66;6205212;28;20045;-77
2022/09/02 02:15:53;;;;;;;0.47;0.30;;;;;;;14.66;69.60;101766.50;6224391;28;20042;-78
2022/09/02 02:18:54;;;;;;;0.57;0.57;;;;;;;14.62;69.83;101773.75;6224694;28;20049;-78
2022/09/02 02:21:56;;;;;;;0.43;0.30;;;;;;;14.57;70.19;101769.66;6224019;28;20054;-78
2022/09/02 02:24:58;;;;;;;1.55;0.63;;;;;;;14.51;70.50;101768.19;6224438;28;20053;-78
2022/09/02 02:28:00;;;;;;;0.43;0.43;;;;;;;14.46;70.74;101764.91;6224693;28;20065;-78
2022/09/02 02:31:01;;;;;;;0.32;0.30;;;;;;;14.39;71.11;101761.72;6224116;28;20054;-78
2022/09/02 02:34:03;;;;;;;0.40;0.40;;;;;;;14.33;71.85;101764.72;6224152;28;20539;-78
2022/09/02 02:37:04;;;;;;;0.88;0.60;;;;;;;14.29;71.94;101759.66;6223812;28;20057;-78
2022/09/02 02:40:09;;;;;;;0.73;0.52;;;;;;;14.23;72.32;101765.28;6223989;28;20498;-78
2022/09/02 02:43:10;;;;;;;0.38;0.38;;;;;;;14.20;72.47;101764.50;6224067;28;20058;-77
2022/09/02 02:46:11;;;;;;;0.70;0.60;;;;;;;14.18;72.77;101760.22;6223856;28;20046;-78
2022/09/02 02:49:13;;;;;;;0.57;0.40;;;;;;;14.12;72.47;101766.66;6224169;28;20053;-78
2022/09/02 02:52:14;;;;;;;0.50;0.47;;;;;;;14.06;73.11;101764.34;6223600;28;20046;-78
2022/09/02 02:55:18;;;;;;;0.40;0.40;;;;;;;13.99;73.55;101755.06;6223810;28;20050;-77
2022/09/02 02:58:19;;;;;;;0.50;0.50;;;;;;;13.91;74.02;101757.22;6223742;28;20057;-78
2022/09/02 03:01:20;;;;;;;0.50;0.50;;;;;;;13.81;74.58;101751.56;6223671;28;20060;-77
2022/09/02 03:04:22;;;;;;;0.70;0.70;;;;;;;13.76;75.00;101750.06;6223548;28;20470;-79
2022/09/02 03:07:23;;;;;;;1.27;0.60;;;;;;;13.73;75.24;101750.22;6223958;28;20042;-78
2022/09/02 03:10:26;;;;;;;0.63;0.57;;;;;;;13.67;74.80;101754.91;6223373;28;20073;-78
2022/09/02 03:13:27;;;;;;;1.85;0.60;;;;;;;13.62;75.06;101748.97;6223856;28;20052;-78
2022/09/02 03:16:29;;;;;;;0.60;0.60;;;;;;;13.61;75.63;101746.41;6223038;28;20386;-78
2022/09/02 03:19:30;;;;;;;0.60;0.57;;;;;;;13.54;76.00;101750.31;6223443;28;20053;-78
2022/09/02 03:22:31;;;;;;;0.88;0.50;;;;;;;13.52;76.07;101745.06;6223516;28;20421;-78
2022/09/02 03:25:36;;;;;;;3.45;1.10;;;;;;;13.47;76.57;101755.00;6223043;28;20041;-78
2022/09/02 03:28:37;;;;;;;0.70;0.70;;;;;;;13.52;76.97;101741.59;6223242;28;20053;-79
2022/09/02 03:31:39;;;;;;;0.52;0.50;;;;;;;13.53;76.66;101744.13;6222841;28;20049;-78
2022/09/02 03:34:41;;;;;;;1.17;0.50;;;;;;;13.51;76.71;101739.88;6223246;28;20497;-77
2022/09/02 03:37:42;;;;;;;0.30;0.30;;;;;;;13.51;76.67;101742.53;6223672;28;20050;-78
2022/09/02 03:40:45;;;;;;;1.20;0.73;;;;;;;13.47;76.77;101731.25;6223021;28;20497;-78
2022/09/02 03:43:47;;;;;;;0.65;0.65;;;;;;;13.44;77.51;101744.59;6222392;28;20498;-78
2022/09/02 03:46:49;;;;;;;0.40;0.40;;;;;;;13.38;77.61;101737.84;6211180;28;20426;-78
2022/09/02 03:49:50;;;;;;;0.65;0.60;;;;;;;13.33;78.04;101741.63;6216197;28;20053;-78
2022/09/02 03:52:52;;;;;;;0.82;0.60;;;;;;;13.30;78.71;101744.41;6222871;28;20057;-77
2022/09/02 03:55:54;;;;;;;0.55;0.45;;;;;;;13.29;78.32;101740.94;6216798;28;20046;-77
2022/09/02 03:58:56;;;;;;;1.23;0.70;;;;;;;13.30;78.61;101741.78;6222744;28;20137;-78
2022/09/02 04:01:57;;;;;;;0.50;0.50;;;;;;;13.32;78.68;101732.88;6222850;28;20050;-78
2022/09/02 04:04:58;;;;;;;1.13;0.60;;;;;;;13.32;78.26;101737.31;6222430;28;20046;-78
2022/09/02 04:08:00;;;;;;;0.80;0.68;;;;;;;13.27;78.94;101742.81;6222891;28;20145;-78
2022/09/02 04:11:06;;;;;;;2.65;0.55;;;;;;;13.24;78.78;101739.44;6222659;28;20061;-78
2022/09/02 04:14:09;;;;;;;0.75;0.50;;;;;;;13.23;79.65;101738.59;6221815;28;20053;-78
2022/09/02 04:17:10;;;;;;;0.57;0.50;;;;;;;13.19;79.28;101744.91;6222859;28;20046;-78
2022/09/02 04:20:12;;;;;;;1.05;0.60;;;;;;;13.17;80.02;101745.00;6222036;28;20054;-78
2022/09/02 04:23:14;;;;;;;0.68;0.68;;;;;;;13.15;79.61;101743.34;6222792;28;20107;-78
2022/09/02 04:26:18;;;;;;;1.10;0.68;;;;;;;13.12;79.99;101741.69;6222128;28;20478;-78
2022/09/02 04:29:19;;;;;;;0.63;0.60;;;;;;;13.15;79.89;101748.63;6222967;28;20049;-78
2022/09/02 04:32:21;;;;;;;1.42;0.68;;;;;;;13.17;80.25;101738.84;6222206;28;20053;-78
2022/09/02 04:35:22;;;;;;;0.55;0.50;;;;;;;13.15;80.43;101740.72;6222350;28;20064;-78
2022/09/02 04:38:24;;;;;;;0.70;0.60;;;;;;;13.11;81.01;101736.50;6222390;28;20061;-78
2022/09/02 04:41:29;;;;;;;0.70;0.50;;;;;;;13.12;80.49;101733.78;6222361;28;20053;-78
2022/09/02 04:44:30;;;;;;;1.55;0.75;;;;;;;13.07;81.35;101732.31;6221986;28;20048;-78
2022/09/02 04:47:31;;;;;;;0.93;0.68;;;;;;;13.04;80.84;101735.97;6222768;28;20493;-77
2022/09/02 04:50:33;;;;;;;1.48;0.77;;;;;;;13.04;81.66;101735.97;6221982;28;20046;-78
2022/09/02 04:53:35;;;;;;;0.73;0.73;;;;;;;13.04;81.63;101733.31;6222641;28;20061;-78
2022/09/02 04:56:38;;;;;;;0.70;0.50;;;;;;;13.00;82.07;101739.66;6221808;28;20046;-78
2022/09/02 04:59:39;;;;;;;0.93;0.55;;;;;;;13.00;81.99;101734.41;6224359;28;20080;-78
2022/09/02 05:02:40;;;;;;;2.38;0.82;;;;;;;13.00;82.11;101739.66;6227489;28;20613;-78
2022/09/02 05:05:42;;;;;;;1.27;0.70;;;;;;;13.01;82.57;101736.09;6226462;28;20608;-78
2022/09/02 05:08:43;;;;;;;0.75;0.50;;;;;;;13.01;82.58;101732.59;6226762;28;20056;-77
2022/09/02 05:11:47;;;;;;;1.52;0.85;;;;;;;13.04;82.46;101732.47;6226194;28;20054;-78
2022/09/02 05:14:48;;;;;;;0.70;0.60;;;;;;;13.08;82.63;101736.66;6226436;28;20099;-77
2022/09/02 05:17:50;;;;;;;1.00;0.90;;;;;;;13.07;82.55;101730.50;6226180;28;20080;-78
2022/09/02 05:20:51;;;;;;;1.52;0.77;;;;;;;13.06;83.32;101722.69;6226295;28;20061;-78
2022/09/02 05:23:53;;;;;;;1.50;0.85;;;;;;;13.10;82.63;101722.47;6225967;28;20050;-77
2022/09/02 05:26:56;;;;;;;0.90;0.75;;;;;;;13.12;82.97;101728.50;6226488;28;20056;-79
2022/09/02 05:29:58;;;;;;;0.95;0.80;;;;;;;13.14;83.04;101728.47;6225842;28;20065;-78
2022/09/02 05:32:59;;;;;;;0.90;0.77;;;;;;;13.13;83.61;101726.75;6226496;28;20060;-78
2022/09/02 05:36:03;;;;;;;0.82;0.80;;;;;;;13.14;83.53;101733.72;6225882;28;20048;-78
2022/09/02 05:39:05;;;;;;;1.13;0.70;;;;;;;13.18;83.39;101730.88;6225799;28;20045;-78
2022/09/02 05:42:08;;;;;;;0.70;0.70;;;;;;;13.23;83.22;101732.47;6225728;28;20483;-78
2022/09/02 05:45:11;;;;;;;0.63;0.57;;;;;;;13.25;83.72;101731.44;6225451;28;20053;-78
2022/09/02 05:51:28;;;;;;;1.40;0.63;;;;;;;13.36;82.90;101731.78;6224281;28;20061;-78
2022/09/02 05:54:32;;;;;;;0.60;0.60;;;;;;;13.41;83.47;101724.50;6225079;28;20045;-78
2022/09/02 05:57:35;;;;;;;1.90;0.90;;;;;;;13.46;82.95;101724.25;6225597;28;20054;-79
2022/09/02 06:00:38;;;;;;;1.52;0.60;;;;;;;13.50;82.90;101717.91;6224923;28;20046;-77
2022/09/02 06:03:40;;;;;;;1.98;0.70;;;;;;;13.55;82.91;101710.59;6225522;28;20057;-78
2022/09/02 06:06:42;;;;;;;0.73;0.68;;;;;;;13.61;82.39;101718.19;6225637;28;20433;-78
2022/09/02 06:09:43;;;;;;;1.80;0.85;;;;;;;13.65;82.92;101716.28;6224956;28;20050;-78
2022/09/02 06:12:46;;;;;;;1.05;0.70;;;;;;;13.67;82.37;101720.56;6224698;28;20057;-79
2022/09/02 06:15:48;;;;;;;0.40;0.40;;;;;;;13.71;82.47;101721.22;6224983;28;20053;-78
2022/09/02 06:18:50;;;;;;;0.95;0.63;;;;;;;13.72;82.05;101725.59;6225198;28;20053;-78
2022/09/02 06:21:52;;;;;;;2.03;1.50;;;;;;;13.81;82.40;101721.66;6224864;28;20088;-78
2022/09/02 06:24:54;;;;;;;1.00;0.90;;;;;;;13.84;82.44;101724.09;6225916;28;20054;-79
2022/09/02 06:27:56;;;;;;;1.38;0.77;;;;;;;13.87;82.19;101719.53;6216876;28;20097;-78
2022/09/02 06:30:58;;;;;;;0.70;0.50;;;;;;;13.94;82.10;101728.88;6211855;28;20422;-78
2022/09/02 06:34:00;;;;;;;0.70;0.70;;;;;;;13.96;81.88;101724.34;6209490;28;20043;-78
2022/09/02 06:37:03;;;;;;;0.50;0.50;;;;;;;14.01;81.78;101725.88;6211302;28;20049;-78
2022/09/02 06:40:06;;;;;;;0.73;0.70;;;;;;;14.08;81.70;101714.94;6208717;28;20046;-78
2022/09/02 06:43:08;;;;;;;2.13;0.88;;;;;;;14.15;80.86;101716.28;6210354;28;20169;-77
2022/09/02 06:46:14;;;;;;;0.80;0.55;;;;;;;14.20;80.62;101716.06;6200187;28;20053;-78
2022/09/02 06:49:16;;;;;;;1.60;0.60;;;;;;;14.26;80.66;101714.88;6199920;28;20062;-78
2022/09/02 06:52:17;;;;;;;0.73;0.60;;;;;;;14.32;79.92;101722.50;6199456;28;20054;-78
2022/09/02 06:55:19;;;;;;;1.40;0.50;;;;;;;14.38;80.18;101716.84;6199347;28;20125;-79
2022/09/02 06:58:21;;;;;;;0.93;0.73;;;;;;;14.41;79.78;101709.63;6202648;28;20053;-79
2022/09/02 07:01:25;;;;;;;1.42;0.50;;;;;;;14.52;79.12;101721.44;6220568;28;20046;-78
2022/09/02 07:07:48;;;;;;;0.50;0.50;;;;;;;14.65;78.82;101718.03;6213860;28;20050;-79
2022/09/02 07:10:49;;;;;;;0.95;0.77;;;;;;;14.70;79.34;101717.78;6217544;28;20052;-79
2022/09/02 07:13:52;;;;;;;1.00;0.70;;;;;;;14.77;78.45;101703.28;6224023;28;20056;-79
2022/09/02 07:16:56;;;;;;;1.50;0.80;;;;;;;14.85;78.21;101698.44;6201776;28;20057;-79
2022/09/02 07:19:59;;;;;;;0.90;0.80;;;;;;;14.94;78.03;101703.22;6199380;28;20054;-79
2022/09/02 07:23:00;;;;;;;1.50;0.70;;;;;;;15.01;77.53;101705.50;6200278;28;20061;-80
2022/09/02 07:26:02;;;;;;;1.80;0.73;;;;;;;15.09;77.53;101708.56;6201562;28;20057;-80
2022/09/02 07:29:07;;;;;;;0.85;0.70;;;;;;;15.13;76.74;101705.66;6200953;28;20073;-81
2022/09/02 07:32:09;;;;;;;1.15;0.80;;;;;;;15.20;76.78;101703.50;6207627;28;20053;-79
2022/09/02 07:35:10;;;;;;;0.88;0.77;;;;;;;15.29;76.45;101702.13;6224394;28;20053;-80
2022/09/02 07:38:13;;;;;;;0.77;0.77;;;;;;;15.32;76.72;101697.50;6224915;28;20061;-80
2022/09/02 07:41:15;;;;;;;2.22;0.85;;;;;;;15.42;75.88;101698.66;6223849;28;20173;-80
2022/09/02 07:44:19;;;;;;;2.08;0.90;;;;;;;15.46;76.00;101700.19;6224623;28;20057;-79
2022/09/02 07:47:21;;;;;;;1.10;1.00;;;;;;;15.56;75.60;101695.22;6224472;28;20405;-80
2022/09/02 07:50:23;;;;;;;1.02;0.52;;;;;;;15.66;74.57;101704.34;6265345;23;20054;-74
2022/09/02 07:53:26;;;;;;;5.38;0.75;;;;;;;15.74;74.62;101701.25;6199145;28;20641;-74
2022/09/02 07:56:28;;;;;;;0.80;0.70;;;;;;;15.82;74.74;101699.00;6222123;28;20081;-73
2022/09/02 07:59:30;;;;;;;1.10;0.90;;;;;;;15.86;74.50;101695.22;6206861;28;20058;-74
2022/09/02 08:02:33;;;;;;;2.08;1.48;;;;;;;15.89;74.11;101692.38;6198079;28;20070;-73
2022/09/02 08:05:35;;;;;;;1.85;0.88;;;;;;;16.01;74.12;101695.22;6201036;28;20383;-74
2022/09/02 08:08:37;;;;;;;1.50;1.08;;;;;;;16.16;72.65;101689.81;6246643;28;20061;-73
2022/09/02 08:11:38;;;;;;;1.13;0.80;;;;;;;16.27;70.95;101697.13;6227973;28;20425;-73
2022/09/02 08:14:41;;;;;;;1.63;1.00;;;;;;;16.33;71.46;101693.25;6221516;28;20460;-73
2022/09/02 08:17:43;;;;;;;1.42;0.68;;;;;;;16.38;71.78;101699.13;6221966;28;20046;-74
2022/09/02 08:20:44;;;;;;;0.80;0.70;;;;;;;16.49;70.81;101688.69;6221403;28;20068;-73
2022/09/02 08:23:50;;;;;;;0.68;0.68;;;;;;;16.55;70.34;101693.59;6221556;28;20049;-74
2022/09/02 08:26:51;;;;;;;0.45;0.30;;;;;;;16.63;69.63;101695.78;6221898;28;20123;-74
2022/09/02 08:29:54;;;;;;;3.53;0.70;;;;;;;16.76;69.22;101693.19;6221389;28;20053;-72
2022/09/02 08:32:56;;;;;;;1.30;0.70;;;;;;;16.82;68.35;101687.53;6221892;28;20050;-74
2022/09/02 08:36:02;;;;;;;0.88;0.80;;;;;;;16.91;68.51;101692.22;6225771;28;20049;-74
2022/09/02 08:39:04;;;;;;;2.55;0.52;;;;;;;16.95;68.22;101691.94;6226800;28;20060;-74
2022/09/02 08:42:13;;;;;;;1.00;0.68;;;;;;;17.04;67.86;101681.66;6226450;28;20053;-72
2022/09/02 08:45:22;;;;;;;0.57;0.57;;;;;;;17.13;66.13;101689.88;6226249;28;20056;-74
2022/09/02 08:48:32;;;;;;;0.77;0.47;;;;;;;17.24;65.04;101675.88;6226898;28;20065;-74
2022/09/02 08:51:37;;;;;;;0.75;0.75;;;;;;;17.31;64.54;101671.88;6224867;28;20054;-75
2022/09/02 08:54:45;;;;;;;0.70;0.57;;;;;;;17.35;65.01;101669.84;6225779;28;20456;-74
2022/09/02 08:57:48;;;;;;;0.57;0.40;;;;;;;17.42;63.55;101674.66;6210252;28;20050;-75
2022/09/02 09:01:03;;;;;;;0.93;0.65;;;;;;;17.54;62.88;101664.16;6225844;28;20053;-75
2022/09/02 09:04:16;;;;;;;0.75;0.50;;;;;;;17.63;62.13;101667.03;6225687;28;20136;-74
2022/09/02 09:07:26;;;;;;;0.80;0.50;;;;;;;17.79;61.07;101666.00;6226018;28;20060;-75
2022/09/02 09:10:36;;;;;;;0.32;0.30;;;;;;;17.92;59.57;101657.06;6225533;28;20054;-74
2022/09/02 09:14:07;;;;;;;0.93;0.50;;;;;;;18.05;59.09;101653.56;6225879;28;20046;-74
2022/09/02 09:17:19;;;;;;;0.68;0.50;;;;;;;18.03;59.45;101658.97;6226149;28;20049;-75
2022/09/02 09:20:24;;;;;;;0.40;0.30;;;;;;;18.19;58.37;101659.59;6225414;28;20053;-73
2022/09/02 09:23:32;;;;;;;0.40;0.40;;;;;;;18.24;57.93;101652.13;6225802;28;20058;-74
2022/09/02 09:26:38;;;;;;;1.98;0.80;;;;;;;18.41;57.01;101644.78;6225187;28;20124;-74
2022/09/02 09:29:39;;;;;;;3.40;0.50;;;;;;;18.44;55.97;101644.53;6224719;28;20053;-77
2022/09/02 09:32:47;;;;;;;3.80;0.70;;;;;;;18.50;55.58;101639.63;6216509;28;20046;-77
2022/09/02 09:35:50;;;;;;;0.65;0.57;;;;;;;18.60;55.13;101638.97;6223752;28;20054;-73
2022/09/02 09:38:52;;;;;;;0.43;0.40;;;;;;;18.67;56.10;101627.75;6225227;28;20494;-74
2022/09/02 09:41:55;;;;;;;0.22;0.22;;;;;;;18.74;53.75;101621.03;6224748;28;20421;-76
2022/09/02 09:44:57;;;;;;;0.50;0.50;;;;;;;18.96;52.88;101630.94;6224323;28;20064;-74
2022/09/02 09:48:17;;;;;;;1.88;0.68;;;;;;;18.98;53.73;101623.69;6224471;28;20052;-76
2022/09/02 09:51:18;;;;;;;1.05;0.50;;;;;;;18.94;54.54;101614.25;6221357;28;20050;-75
2022/09/02 09:54:19;;;;;;;1.85;0.40;;;;;;;19.13;53.07;101615.53;6224367;28;20413;-77
2022/09/02 09:57:22;;;;;;;2.67;0.30;;;;;;;19.22;51.81;101617.50;6224902;28;20057;-77
2022/09/02 10:00:28;;;;;;;0.73;0.50;;;;;;;19.31;50.54;101608.81;6224043;28;20046;-75
2022/09/02 10:03:30;;;;;;;2.97;0.50;;;;;;;19.41;50.06;101608.94;6224828;28;20144;-75
2022/09/02 10:06:40;;;;;;;0.45;0.40;;;;;;;19.50;50.09;101597.56;6223138;28;20046;-77
2022/09/02 10:09:42;;;;;;;1.63;0.45;;;;;;;19.55;49.27;101603.38;6221574;28;20060;-76
2022/09/02 10:12:44;;;;;;;2.20;0.45;;;;;;;19.64;49.45;101592.03;6222410;28;20045;-77
2022/09/02 10:15:58;;;;;;;0.80;0.50;;;;;;;19.84;49.11;101593.13;6222536;28;20053;-76
2022/09/02 10:19:05;;;;;;;2.17;0.50;;;;;;;19.97;48.36;101590.34;6221412;28;20057;-76
2022/09/02 10:22:32;;;;;;;0.55;0.50;;;;;;;20.18;47.33;101588.63;6222389;28;20049;-77
2022/09/02 10:25:46;;;;;;;0.73;0.60;;;;;;;20.23;47.08;101569.56;6219370;28;20183;-75
2022/09/02 10:29:02;;;;;;;2.45;0.60;;;;;;;20.24;47.83;101566.78;6224214;28;20057;-75
2022/09/02 10:32:26;;;;;;;0.60;0.60;;;;;;;20.30;48.23;101570.75;6224354;28;20057;-76
2022/09/02 10:35:40;;;;;;;0.60;0.40;;;;;;;20.46;47.25;101568.53;6222877;28;20046;-76
2022/09/02 10:38:43;;;;;;;0.55;0.45;;;;;;;20.58;46.84;101561.41;6217288;28;20042;-77
2022/09/02 10:41:46;;;;;;;0.68;0.68;;;;;;;20.61;46.76;101562.94;6222961;28;20417;-77
2022/09/02 10:44:57;;;;;;;0.43;0.43;;;;;;;20.64;46.48;101550.19;6223515;28;20057;-76
2022/09/02 10:48:17;;;;;;;0.38;0.38;;;;;;;20.73;47.00;101552.09;6223738;28;20050;-77
2022/09/02 10:51:27;;;;;;;;;;;;;;;20.89;47.00;101551.69;6223475;28;20061;-76
2022/09/02 10:54:45;;;;;;;0.50;0.50;;;;;;;21.00;45.76;101545.41;6223172;28;20367;-75
2022/09/02 10:57:51;;;;;;;1.20;0.40;;;;;;;21.29;45.70;101541.09;6223197;28;20045;-75
2022/09/02 11:00:56;;;;;;;0.50;0.50;;;;;;;21.32;46.13;101537.34;6222977;28;20046;-76
2022/09/02 11:04:08;;;;;;;0.70;0.50;;;;;;;21.46;43.40;101531.66;6223573;28;20054;-77
2022/09/02 11:07:16;;;;;;;3.67;0.65;;;;;;;21.60;43.30;101540.28;6223272;28;20046;-75
2022/09/02 11:10:23;;;;;;;0.57;0.45;;;;;;;21.62;42.45;101535.66;6222805;28;20058;-76
2022/09/02 11:13:28;;;;;;;3.58;0.60;;;;;;;21.86;42.15;101528.16;6221275;28;20050;-75
2022/09/02 11:16:34;;;;;;;2.63;0.70;;;;;;;21.90;41.54;101521.56;6222383;28;20077;-75
2022/09/02 11:19:41;;;;;;;4.13;0.50;;;;;;;22.12;41.87;101523.19;6222826;28;20490;-75
2022/09/02 11:22:53;;;;;;;0.30;0.30;;;;;;;22.35;40.80;101518.44;6222895;28;20050;-73
2022/09/02 11:26:03;;;;;;;1.55;0.80;;;;;;;22.60;39.88;101502.78;6222449;28;20184;-73
2022/09/02 11:29:09;;;;;;;1.38;0.63;;;;;;;22.76;39.37;101514.63;6222627;28;20046;-74
2022/09/02 11:32:18;;;;;;;1.67;0.60;;;;;;;22.85;39.77;101509.41;6222060;28;20058;-72
2022/09/02 11:35:26;;;;;;;0.45;0.35;;;;;;;23.16;39.13;101505.53;6222355;28;20057;-73
2022/09/02 11:38:36;;;;;;;1.02;0.43;;;;;;;23.38;38.31;101506.19;6222647;28;20057;-74
2022/09/02 11:41:54;;;;;;;1.08;0.60;;;;;;;23.52;38.91;101492.28;6222287;28;20057;-72
2022/09/02 11:45:13;;;;;;;0.30;0.30;;;;;;;23.83;36.83;101497.41;6222101;28;20068;-73
2022/09/02 11:48:52;;;;;;;0.98;0.47;;;;;;;24.02;35.90;101487.38;6222116;28;20081;-73
2022/09/02 11:52:02;;;;;;;0.77;0.50;;;;;;;24.38;35.38;101490.13;6239269;28;20513;-73
2022/09/02 11:55:10;;;;;;;0.85;0.85;;;;;;;24.59;35.93;101491.66;6218819;28;20049;-72
2022/09/02 11:58:11;;;;;;;2.35;0.50;;;;;;;24.85;35.63;101487.19;6222012;28;20449;-74
2022/09/02 12:01:27;;;;;;;0.75;0.40;;;;;;;25.18;34.11;101480.19;6222346;28;20512;-79
2022/09/02 12:04:29;;;;;;;0.32;0.30;;;;;;;25.25;34.52;101486.63;6222061;28;20160;-73
2022/09/02 12:07:46;;;;;;;0.95;0.40;;;;;;;25.58;33.91;101486.78;6216723;28;20452;-73
2022/09/02 12:10:59;;;;;;;0.80;0.32;;;;;;;25.74;32.36;101480.59;6214457;28;20053;-75
2022/09/02 12:14:01;;;;;;;0.30;0.30;;;;;;;25.82;31.79;101477.16;6221456;28;20053;-72
2022/09/02 12:17:04;;;;;;;0.30;0.30;;;;;;;25.96;32.42;101477.34;6222193;28;20042;-71
2022/09/02 12:20:07;;;;;;;0.38;0.38;;;;;;;25.99;31.48;101471.63;6221536;28;20053;-71
2022/09/02 12:23:30;;;;;;;1.80;0.43;;;;;;;25.63;30.85;101470.16;6222321;28;20135;-74
2022/09/02 12:27:07;;;;;;;0.45;0.32;;;;;;;25.53;32.24;101459.53;6221416;28;20050;-72
2022/09/02 12:30:12;;;;;;;0.50;0.45;;;;;;;25.51;31.07;101465.03;6221582;28;20050;-71
2022/09/02 12:33:13;;;;;;;1.05;0.52;;;;;;;25.75;30.78;101458.94;6222374;28;20042;-72
2022/09/02 12:36:45;;;;;;;0.47;0.47;;;;;;;25.63;30.64;101448.63;6221592;28;20053;-74
2022/09/02 12:39:55;;;;;;;0.32;0.32;;;;;;;25.68;31.37;101452.50;6221552;28;20505;-73
2022/09/02 12:43:02;;;;;;;1.15;0.40;;;;;;;25.96;30.53;101447.72;6221274;28;20064;-72
2022/09/02 12:46:17;;;;;;;1.10;0.40;;;;;;;25.87;30.53;101440.63;6220757;28;20489;-72
2022/09/02 12:49:28;;;;;;;1.60;0.40;;;;;;;26.03;30.69;101434.44;6221127;28;20111;-72
2022/09/02 12:52:45;;;;;;;1.50;0.50;;;;;;;26.48;30.16;101436.69;6221610;28;20088;-73
2022/09/02 12:55:55;;;;;;;0.45;0.45;;;;;;;26.64;28.46;101426.91;6221162;28;20059;-72
2022/09/02 12:58:58;;;;;;;0.32;0.22;;;;;;;26.80;28.71;101432.28;6221686;28;20417;-74
2022/09/02 13:02:17;;;;;;;0.70;0.43;;;;;;;26.92;28.14;101427.34;6221120;28;20054;-73
2022/09/02 13:05:26;;;;;;;0.35;0.35;;;;;;;26.59;28.42;101418.47;6221316;28;20069;-73
2022/09/02 13:08:57;;;;;;;0.70;0.50;;;;;;;26.01;29.82;101410.34;6215531;28;20073;-72
2022/09/02 13:12:28;;;;;;;0.45;0.30;;;;;;;26.40;28.96;101415.09;6215583;28;20050;-71
2022/09/02 13:15:44;;;;;;;1.08;0.40;;;;;;;27.00;29.05;101419.25;6220954;28;20069;-72
2022/09/02 13:19:19;;;;;;;0.70;0.60;;;;;;;27.17;27.52;101406.59;6221028;28;20088;-72
2022/09/02 13:22:44;;;;;;;0.82;0.43;;;;;;;27.64;27.51;101402.97;6225125;28;20405;-72
2022/09/02 13:26:12;;;;;;;1.15;0.55;;;;;;;27.68;27.02;101402.44;6225369;28;20073;-72
2022/09/02 13:29:49;;;;;;;0.80;0.65;;;;;;;27.94;26.95;101401.31;6225810;28;20053;-72
2022/09/02 13:33:02;;;;;;;0.43;0.40;;;;;;;27.97;26.56;101398.22;6225359;28;20057;-72
2022/09/02 13:36:05;;;;;;;0.98;0.90;;;;;;;28.15;26.34;101392.50;6225180;28;20057;-72
2022/09/02 13:39:12;;;;;;;1.75;0.50;;;;;;;28.19;25.93;101383.03;6225138;28;20050;-72
2022/09/02 13:42:17;;;;;;;0.60;0.60;;;;;;;28.18;25.82;101387.59;6224634;28;20050;-72
2022/09/02 13:45:21;;;;;;;3.53;0.60;;;;;;;28.17;25.67;101377.81;6224841;28;20076;-72
2022/09/02 13:48:26;;;;;;;0.45;0.40;;;;;;;27.88;26.32;101369.59;6225405;28;20050;-72
2022/09/02 13:51:27;;;;;;;1.92;1.05;;;;;;;28.06;26.20;101381.75;6278792;23;20524;-78
2022/09/02 13:54:34;;;;;;;0.50;0.40;;;;;;;28.11;25.91;101372.28;6264573;28;20049;-77
2022/09/02 13:57:36;;;;;;;0.98;0.50;;;;;;;28.08;26.31;101376.19;6250605;28;20049;-77
2022/09/02 14:00:40;;;;;;;0.93;0.43;;;;;;;28.26;25.75;101368.59;6258307;28;20048;-77
2022/09/02 14:03:47;;;;;;;0.50;0.50;;;;;;;28.65;25.58;101364.88;6258463;28;20408;-78
2022/09/02 14:06:49;;;;;;;0.65;0.65;;;;;;;28.38;25.51;101355.50;6272030;28;20049;-75
2022/09/02 14:09:51;;;;;;;0.65;0.40;;;;;;;28.50;25.47;101359.44;6273585;28;20738;-76
2022/09/02 14:12:54;;;;;;;0.43;0.40;;;;;;;28.54;25.00;101355.34;6274425;28;20678;-76
2022/09/02 14:16:26;;;;;;;0.85;0.60;;;;;;;28.64;24.88;101354.25;6273507;28;20098;-77
2022/09/02 14:19:29;;;;;;;0.50;0.40;;;;;;;28.88;24.81;101355.81;6273912;28;20484;-77
2022/09/02 14:22:30;;;;;;;0.82;0.52;;;;;;;28.93;24.86;101351.53;6273555;28;20508;-78
2022/09/02 14:25:37;;;;;;;0.55;0.50;;;;;;;29.01;24.90;101351.47;6273544;28;20052;-78
2022/09/02 14:28:39;;;;;;;0.90;0.50;;;;;;;29.14;24.85;101350.78;6273522;28;20136;-78